sensor_id;sensor_type;location;lat;lon;timestamp;temperature;humidity
12634;DHT22;6382;48.614;8.880;2022-12-07T00:01:41;4.60;99.90
12634;DHT22;6382;48.614;8.880;2022-12-07T00:04:12;2.50;99.90
12634;DHT22;6382;48.614;8.880;2022-12-07T00:06:40;2.60;99.90
12634;DHT22;6382;48.614;8.880;2022-12-07T00:09:12;2.70;99.90
12634;DHT22;6382;48.614;8.880;2022-12-07T00:11:39;2.70;99.90
12634;DHT22;6382;48.614;8.880;2022-12-07T00:14:07;2.70;99.90
12634;DHT22;6382;48.614;8.880;2022-12-07T00:16:34;2.70;99.90
12634;DHT22;6382;48.614;8.880;2022-12-07T00:19:01;2.60;99.90
12634;DHT22;6382;48.614;8.880;2022-12-07T00:21:29;4.30;99.90
12634;DHT22;6382;48.614;8.880;2022-12-07T00:23:56;2.60;99.90
12634;DHT22;6382;48.614;8.880;2022-12-07T00:26:24;2.60;99.90
12634;DHT22;6382;48.614;8.880;2022-12-07T00:28:52;2.70;99.90
12634;DHT22;6382;48.614;8.880;2022-12-07T00:31:20;2.70;99.90
12634;DHT22;6382;48.614;8.880;2022-12-07T00:33:47;4.30;99.90
12634;DHT22;6382;48.614;8.880;2022-12-07T00:36:15;2.70;99.90
12634;DHT22;6382;48.614;8.880;2022-12-07T00:38:47;2.70;99.90
12634;DHT22;6382;48.614;8.880;2022-12-07T00:41:14;2.70;99.90
12634;DHT22;6382;48.614;8.880;2022-12-07T00:43:42;4.10;99.90
12634;DHT22;6382;48.614;8.880;2022-12-07T00:46:09;2.80;99.90
12634;DHT22;6382;48.614;8.880;2022-12-07T00:48:36;2.80;99.90
12634;DHT22;6382;48.614;8.880;2022-12-07T00:51:03;2.80;99.90
12634;DHT22;6382;48.614;8.880;2022-12-07T00:53:30;2.70;99.90
12634;DHT22;6382;48.614;8.880;2022-12-07T00:56:07;4.10;99.90
12634;DHT22;6382;48.614;8.880;2022-12-07T00:58:34;2.70;99.90
12634;DHT22;6382;48.614;8.880;2022-12-07T01:01:01;2.60;99.90
12634;DHT22;6382;48.614;8.880;2022-12-07T01:03:29;2.70;99.90
12634;DHT22;6382;48.614;8.880;2022-12-07T01:05:56;4.10;99.90
12634;DHT22;6382;48.614;8.880;2022-12-07T01:08:23;4.90;99.90
12634;DHT22;6382;48.614;8.880;2022-12-07T01:10:58;3.00;99.90
12634;DHT22;6382;48.614;8.880;2022-12-07T01:13:25;2.70;99.90
12634;DHT22;6382;48.614;8.880;2022-12-07T01:15:55;4.00;99.90
12634;DHT22;6382;48.614;8.880;2022-12-07T01:18:22;2.70;99.90
12634;DHT22;6382;48.614;8.880;2022-12-07T01:20:59;2.70;99.90
12634;DHT22;6382;48.614;8.880;2022-12-07T01:23:26;4.30;99.90
12634;DHT22;6382;48.614;8.880;2022-12-07T01:25:59;2.70;99.90
12634;DHT22;6382;48.614;8.880;2022-12-07T01:28:26;2.60;99.90
12634;DHT22;6382;48.614;8.880;2022-12-07T01:30:55;2.70;99.90
12634;DHT22;6382;48.614;8.880;2022-12-07T01:33:21;2.70;99.90
12634;DHT22;6382;48.614;8.880;2022-12-07T01:35:48;2.60;99.90
12634;DHT22;6382;48.614;8.880;2022-12-07T01:38:15;2.60;99.90
12634;DHT22;6382;48.614;8.880;2022-12-07T01:40:41;2.70;99.90
12634;DHT22;6382;48.614;8.880;2022-12-07T01:43:13;2.70;99.90
12634;DHT22;6382;48.614;8.880;2022-12-07T01:45:41;2.70;99.90
12634;DHT22;6382;48.614;8.880;2022-12-07T01:48:08;2.70;99.90
12634;DHT22;6382;48.614;8.880;2022-12-07T01:50:36;2.70;99.90
12634;DHT22;6382;48.614;8.880;2022-12-07T01:53:04;2.70;99.90
12634;DHT22;6382;48.614;8.880;2022-12-07T01:55:31;2.70;99.90
12634;DHT22;6382;48.614;8.880;2022-12-07T01:57:59;2.60;99.90
12634;DHT22;6382;48.614;8.880;2022-12-07T02:00:26;2.50;99.90
12634;DHT22;6382;48.614;8.880;2022-12-07T02:02:57;2.40;99.90
12634;DHT22;6382;48.614;8.880;2022-12-07T02:05:26;2.30;99.90
12634;DHT22;6382;48.614;8.880;2022-12-07T02:07:54;2.30;99.90
12634;DHT22;6382;48.614;8.880;2022-12-07T02:10:22;2.20;99.90
12634;DHT22;6382;48.614;8.880;2022-12-07T02:13:24;2.10;99.90
12634;DHT22;6382;48.614;8.880;2022-12-07T02:18:16;2.00;99.90
12634;DHT22;6382;48.614;8.880;2022-12-07T02:25:55;1.90;99.90
12634;DHT22;6382;48.614;8.880;2022-12-07T02:28:34;1.80;99.90
12634;DHT22;6382;48.614;8.880;2022-12-07T02:31:10;1.80;99.90
12634;DHT22;6382;48.614;8.880;2022-12-07T02:33:50;1.80;99.90
12634;DHT22;6382;48.614;8.880;2022-12-07T02:36:21;1.80;99.90
12634;DHT22;6382;48.614;8.880;2022-12-07T02:38:55;1.90;99.90
12634;DHT22;6382;48.614;8.880;2022-12-07T02:41:24;1.90;99.90
12634;DHT22;6382;48.614;8.880;2022-12-07T02:43:56;3.60;99.90
12634;DHT22;6382;48.614;8.880;2022-12-07T02:46:32;1.90;99.90
12634;DHT22;6382;48.614;8.880;2022-12-07T02:49:00;1.90;99.90
12634;DHT22;6382;48.614;8.880;2022-12-07T02:51:29;1.90;99.90
12634;DHT22;6382;48.614;8.880;2022-12-07T02:53:56;1.90;99.90
12634;DHT22;6382;48.614;8.880;2022-12-07T02:56:29;1.90;99.90
12634;DHT22;6382;48.614;8.880;2022-12-07T03:02:09;2.00;99.90
12634;DHT22;6382;48.614;8.880;2022-12-07T03:09:44;2.00;99.90
12634;DHT22;6382;48.614;8.880;2022-12-07T03:12:19;2.00;99.90
12634;DHT22;6382;48.614;8.880;2022-12-07T03:14:49;2.00;99.90
12634;DHT22;6382;48.614;8.880;2022-12-07T03:17:20;1.90;99.90
12634;DHT22;6382;48.614;8.880;2022-12-07T03:19:51;1.90;99.90
12634;DHT22;6382;48.614;8.880;2022-12-07T03:22:18;1.90;99.90
12634;DHT22;6382;48.614;8.880;2022-12-07T03:24:49;1.90;99.90
12634;DHT22;6382;48.614;8.880;2022-12-07T03:27:23;1.90;99.90
12634;DHT22;6382;48.614;8.880;2022-12-07T03:30:13;1.90;99.90
12634;DHT22;6382;48.614;8.880;2022-12-07T03:32:43;3.90;99.90
12634;DHT22;6382;48.614;8.880;2022-12-07T03:35:34;1.90;99.90
12634;DHT22;6382;48.614;8.880;2022-12-07T03:38:02;1.90;99.90
12634;DHT22;6382;48.614;8.880;2022-12-07T03:42:58;2.00;99.90
12634;DHT22;6382;48.614;8.880;2022-12-07T03:45:31;2.00;99.90
12634;DHT22;6382;48.614;8.880;2022-12-07T03:48:02;2.00;99.90
12634;DHT22;6382;48.614;8.880;2022-12-07T03:50:31;1.90;99.90
12634;DHT22;6382;48.614;8.880;2022-12-07T03:53:05;1.90;99.90
12634;DHT22;6382;48.614;8.880;2022-12-07T03:55:36;1.90;99.90
12634;DHT22;6382;48.614;8.880;2022-12-07T03:58:08;1.90;99.90
12634;DHT22;6382;48.614;8.880;2022-12-07T04:00:36;1.90;99.90
12634;DHT22;6382;48.614;8.880;2022-12-07T04:03:03;2.00;99.90
12634;DHT22;6382;48.614;8.880;2022-12-07T04:05:30;2.00;99.90
12634;DHT22;6382;48.614;8.880;2022-12-07T04:07:56;2.00;99.90
12634;DHT22;6382;48.614;8.880;2022-12-07T04:10:23;2.00;99.90
12634;DHT22;6382;48.614;8.880;2022-12-07T04:12:50;2.00;99.90
12634;DHT22;6382;48.614;8.880;2022-12-07T04:15:16;2.50;99.90
12634;DHT22;6382;48.614;8.880;2022-12-07T04:17:43;3.60;99.90
12634;DHT22;6382;48.614;8.880;2022-12-07T04:20:10;2.00;99.90
12634;DHT22;6382;48.614;8.880;2022-12-07T04:22:37;1.90;99.90
12634;DHT22;6382;48.614;8.880;2022-12-07T04:25:04;1.90;99.90
12634;DHT22;6382;48.614;8.880;2022-12-07T04:27:31;1.90;99.90
12634;DHT22;6382;48.614;8.880;2022-12-07T04:29:57;3.50;99.90
12634;DHT22;6382;48.614;8.880;2022-12-07T04:32:24;2.00;99.90
12634;DHT22;6382;48.614;8.880;2022-12-07T04:34:51;1.90;99.90
12634;DHT22;6382;48.614;8.880;2022-12-07T04:37:21;4.30;99.90
12634;DHT22;6382;48.614;8.880;2022-12-07T04:39:48;2.00;99.90
12634;DHT22;6382;48.614;8.880;2022-12-07T04:42:15;4.30;99.90
12634;DHT22;6382;48.614;8.880;2022-12-07T04:44:42;1.80;99.90
12634;DHT22;6382;48.614;8.880;2022-12-07T04:47:09;1.80;99.90
12634;DHT22;6382;48.614;8.880;2022-12-07T04:49:36;1.90;99.90
12634;DHT22;6382;48.614;8.880;2022-12-07T04:52:03;1.80;99.90
12634;DHT22;6382;48.614;8.880;2022-12-07T04:54:29;1.80;99.90
12634;DHT22;6382;48.614;8.880;2022-12-07T04:56:56;1.90;99.90
12634;DHT22;6382;48.614;8.880;2022-12-07T04:59:23;1.90;99.90
12634;DHT22;6382;48.614;8.880;2022-12-07T05:01:49;1.80;99.90
12634;DHT22;6382;48.614;8.880;2022-12-07T05:04:16;1.90;99.90
12634;DHT22;6382;48.614;8.880;2022-12-07T05:06:44;1.70;99.90
12634;DHT22;6382;48.614;8.880;2022-12-07T05:09:10;1.60;99.90
12634;DHT22;6382;48.614;8.880;2022-12-07T05:11:37;1.60;99.90
12634;DHT22;6382;48.614;8.880;2022-12-07T05:14:26;1.50;99.90
12634;DHT22;6382;48.614;8.880;2022-12-07T05:16:51;1.40;99.90
12634;DHT22;6382;48.614;8.880;2022-12-07T05:19:18;1.30;99.90
12634;DHT22;6382;48.614;8.880;2022-12-07T05:21:45;-0.40;99.90
12634;DHT22;6382;48.614;8.880;2022-12-07T05:24:13;1.20;99.90
12634;DHT22;6382;48.614;8.880;2022-12-07T05:26:40;1.20;99.90
12634;DHT22;6382;48.614;8.880;2022-12-07T05:29:07;1.20;99.90
12634;DHT22;6382;48.614;8.880;2022-12-07T05:31:34;1.10;99.90
12634;DHT22;6382;48.614;8.880;2022-12-07T05:34:01;1.20;99.90
12634;DHT22;6382;48.614;8.880;2022-12-07T05:36:27;1.00;99.90
12634;DHT22;6382;48.614;8.880;2022-12-07T05:38:55;1.00;99.90
12634;DHT22;6382;48.614;8.880;2022-12-07T05:41:22;0.90;99.90
12634;DHT22;6382;48.614;8.880;2022-12-07T05:44:07;0.70;99.90
12634;DHT22;6382;48.614;8.880;2022-12-07T05:46:34;0.60;99.90
12634;DHT22;6382;48.614;8.880;2022-12-07T05:49:01;0.60;99.90
12634;DHT22;6382;48.614;8.880;2022-12-07T05:51:28;0.60;99.90
12634;DHT22;6382;48.614;8.880;2022-12-07T05:53:54;0.60;99.90
12634;DHT22;6382;48.614;8.880;2022-12-07T05:56:21;0.60;99.90
12634;DHT22;6382;48.614;8.880;2022-12-07T05:58:49;0.60;99.90
12634;DHT22;6382;48.614;8.880;2022-12-07T06:01:34;2.50;99.90
12634;DHT22;6382;48.614;8.880;2022-12-07T06:04:01;0.80;99.90
12634;DHT22;6382;48.614;8.880;2022-12-07T06:06:28;0.90;99.90
12634;DHT22;6382;48.614;8.880;2022-12-07T06:08:55;0.30;99.90
12634;DHT22;6382;48.614;8.880;2022-12-07T06:11:21;0.90;99.90
12634;DHT22;6382;48.614;8.880;2022-12-07T06:14:07;1.00;99.90
12634;DHT22;6382;48.614;8.880;2022-12-07T06:16:34;1.00;99.90
12634;DHT22;6382;48.614;8.880;2022-12-07T06:19:00;1.00;99.90
12634;DHT22;6382;48.614;8.880;2022-12-07T06:21:27;1.00;99.90
12634;DHT22;6382;48.614;8.880;2022-12-07T06:23:54;1.10;99.90
12634;DHT22;6382;48.614;8.880;2022-12-07T06:26:21;1.10;99.90
12634;DHT22;6382;48.614;8.880;2022-12-07T06:28:47;1.20;99.90
12634;DHT22;6382;48.614;8.880;2022-12-07T06:31:14;1.20;99.90
12634;DHT22;6382;48.614;8.880;2022-12-07T06:33:41;1.20;99.90
12634;DHT22;6382;48.614;8.880;2022-12-07T06:36:08;1.30;99.90
12634;DHT22;6382;48.614;8.880;2022-12-07T06:38:36;1.30;99.90
12634;DHT22;6382;48.614;8.880;2022-12-07T06:41:02;1.30;99.90
12634;DHT22;6382;48.614;8.880;2022-12-07T06:43:29;1.30;99.90
12634;DHT22;6382;48.614;8.880;2022-12-07T06:45:56;1.30;99.90
12634;DHT22;6382;48.614;8.880;2022-12-07T06:48:23;1.20;99.90
12634;DHT22;6382;48.614;8.880;2022-12-07T06:50:50;1.20;99.90
12634;DHT22;6382;48.614;8.880;2022-12-07T06:53:21;1.20;99.90
12634;DHT22;6382;48.614;8.880;2022-12-07T06:55:48;1.20;99.90
12634;DHT22;6382;48.614;8.880;2022-12-07T06:58:14;1.90;99.90
12634;DHT22;6382;48.614;8.880;2022-12-07T07:00:41;1.10;99.90
12634;DHT22;6382;48.614;8.880;2022-12-07T07:03:08;1.10;99.90
12634;DHT22;6382;48.614;8.880;2022-12-07T07:05:35;1.10;99.90
12634;DHT22;6382;48.614;8.880;2022-12-07T07:08:02;0.20;99.90
12634;DHT22;6382;48.614;8.880;2022-12-07T07:10:49;1.30;99.90
12634;DHT22;6382;48.614;8.880;2022-12-07T07:13:15;1.30;99.90
12634;DHT22;6382;48.614;8.880;2022-12-07T07:15:42;1.40;99.90
12634;DHT22;6382;48.614;8.880;2022-12-07T07:18:09;1.40;99.90
12634;DHT22;6382;48.614;8.880;2022-12-07T07:20:37;1.40;99.90
12634;DHT22;6382;48.614;8.880;2022-12-07T07:23:03;1.40;99.90
12634;DHT22;6382;48.614;8.880;2022-12-07T07:25:30;1.40;99.90
12634;DHT22;6382;48.614;8.880;2022-12-07T07:27:57;1.50;99.90
12634;DHT22;6382;48.614;8.880;2022-12-07T07:30:24;1.40;99.90
12634;DHT22;6382;48.614;8.880;2022-12-07T07:32:55;1.50;99.90
12634;DHT22;6382;48.614;8.880;2022-12-07T07:35:22;1.40;99.90
12634;DHT22;6382;48.614;8.880;2022-12-07T07:37:49;1.40;99.90
12634;DHT22;6382;48.614;8.880;2022-12-07T07:40:15;3.70;99.90
12634;DHT22;6382;48.614;8.880;2022-12-07T07:42:42;1.50;99.90
12634;DHT22;6382;48.614;8.880;2022-12-07T07:45:09;1.50;99.90
12634;DHT22;6382;48.614;8.880;2022-12-07T07:47:36;1.50;99.90
12634;DHT22;6382;48.614;8.880;2022-12-07T07:50:03;1.50;99.90
12634;DHT22;6382;48.614;8.880;2022-12-07T07:52:30;1.50;99.90
12634;DHT22;6382;48.614;8.880;2022-12-07T07:54:57;1.60;99.90
12634;DHT22;6382;48.614;8.880;2022-12-07T07:57:24;1.70;99.90
12634;DHT22;6382;48.614;8.880;2022-12-07T07:59:50;3.50;99.90
12634;DHT22;6382;48.614;8.880;2022-12-07T08:02:18;1.70;99.90
12634;DHT22;6382;48.614;8.880;2022-12-07T08:04:45;2.60;99.90
12634;DHT22;6382;48.614;8.880;2022-12-07T08:07:13;1.70;99.90
12634;DHT22;6382;48.614;8.880;2022-12-07T08:09:40;1.70;99.90
12634;DHT22;6382;48.614;8.880;2022-12-07T08:12:07;1.70;99.90
12634;DHT22;6382;48.614;8.880;2022-12-07T08:14:33;1.70;99.90
12634;DHT22;6382;48.614;8.880;2022-12-07T08:17:00;3.50;99.90
12634;DHT22;6382;48.614;8.880;2022-12-07T08:19:27;1.80;99.90
12634;DHT22;6382;48.614;8.880;2022-12-07T08:21:54;1.80;99.90
12634;DHT22;6382;48.614;8.880;2022-12-07T08:24:22;1.80;99.90
12634;DHT22;6382;48.614;8.880;2022-12-07T08:26:49;1.80;99.90
12634;DHT22;6382;48.614;8.880;2022-12-07T08:29:17;1.80;99.90
12634;DHT22;6382;48.614;8.880;2022-12-07T08:31:43;1.90;99.90
12634;DHT22;6382;48.614;8.880;2022-12-07T08:34:11;1.60;99.90
12634;DHT22;6382;48.614;8.880;2022-12-07T08:36:38;1.30;99.90
12634;DHT22;6382;48.614;8.880;2022-12-07T08:39:04;2.10;99.90
12634;DHT22;6382;48.614;8.880;2022-12-07T08:41:51;2.10;99.90
12634;DHT22;6382;48.614;8.880;2022-12-07T08:44:18;2.10;99.90
12634;DHT22;6382;48.614;8.880;2022-12-07T08:46:49;2.10;99.90
12634;DHT22;6382;48.614;8.880;2022-12-07T08:49:20;2.20;99.90
12634;DHT22;6382;48.614;8.880;2022-12-07T08:51:48;2.20;99.90
12634;DHT22;6382;48.614;8.880;2022-12-07T08:54:15;2.20;99.90
12634;DHT22;6382;48.614;8.880;2022-12-07T08:56:43;2.30;99.90
12634;DHT22;6382;48.614;8.880;2022-12-07T08:59:10;4.40;99.90
12634;DHT22;6382;48.614;8.880;2022-12-07T09:01:38;2.40;99.90
12634;DHT22;6382;48.614;8.880;2022-12-07T09:04:04;4.90;99.90
12634;DHT22;6382;48.614;8.880;2022-12-07T09:06:31;2.50;99.90
12634;DHT22;6382;48.614;8.880;2022-12-07T09:08:58;2.50;99.90
12634;DHT22;6382;48.614;8.880;2022-12-07T09:11:27;2.50;99.90
12634;DHT22;6382;48.614;8.880;2022-12-07T09:13:54;2.50;99.90
12634;DHT22;6382;48.614;8.880;2022-12-07T09:16:21;2.50;99.90
12634;DHT22;6382;48.614;8.880;2022-12-07T09:18:48;3.70;99.90
12634;DHT22;6382;48.614;8.880;2022-12-07T09:21:15;2.70;99.90
12634;DHT22;6382;48.614;8.880;2022-12-07T09:23:42;4.80;99.90
12634;DHT22;6382;48.614;8.880;2022-12-07T09:26:09;2.80;99.90
12634;DHT22;6382;48.614;8.880;2022-12-07T09:28:37;2.80;99.90
12634;DHT22;6382;48.614;8.880;2022-12-07T09:31:04;2.80;99.90
12634;DHT22;6382;48.614;8.880;2022-12-07T09:33:55;2.90;99.90
12634;DHT22;6382;48.614;8.880;2022-12-07T09:36:22;2.90;99.90
12634;DHT22;6382;48.614;8.880;2022-12-07T09:38:49;2.90;99.90
12634;DHT22;6382;48.614;8.880;2022-12-07T09:41:15;3.00;99.90
12634;DHT22;6382;48.614;8.880;2022-12-07T09:43:42;3.00;99.90
12634;DHT22;6382;48.614;8.880;2022-12-07T09:46:11;3.70;99.90
12634;DHT22;6382;48.614;8.880;2022-12-07T09:48:39;3.10;99.90
12634;DHT22;6382;48.614;8.880;2022-12-07T09:51:17;3.10;99.90
12634;DHT22;6382;48.614;8.880;2022-12-07T09:53:50;3.10;99.90
12634;DHT22;6382;48.614;8.880;2022-12-07T09:56:17;3.20;99.90
12634;DHT22;6382;48.614;8.880;2022-12-07T09:58:45;4.70;99.90
12634;DHT22;6382;48.614;8.880;2022-12-07T10:01:13;3.30;99.90
12634;DHT22;6382;48.614;8.880;2022-12-07T10:03:42;3.30;99.90
12634;DHT22;6382;48.614;8.880;2022-12-07T10:06:11;3.30;99.90
12634;DHT22;6382;48.614;8.880;2022-12-07T10:08:39;3.40;99.90
12634;DHT22;6382;48.614;8.880;2022-12-07T10:11:07;3.40;99.90
12634;DHT22;6382;48.614;8.880;2022-12-07T10:13:39;3.40;99.90
12634;DHT22;6382;48.614;8.880;2022-12-07T10:16:06;3.40;99.90
12634;DHT22;6382;48.614;8.880;2022-12-07T10:18:48;4.90;99.90
12634;DHT22;6382;48.614;8.880;2022-12-07T10:21:19;3.40;99.90
12634;DHT22;6382;48.614;8.880;2022-12-07T10:24:25;3.40;99.90
12634;DHT22;6382;48.614;8.880;2022-12-07T10:31:46;3.60;99.90
12634;DHT22;6382;48.614;8.880;2022-12-07T10:34:20;5.10;99.90
12634;DHT22;6382;48.614;8.880;2022-12-07T10:36:50;3.60;99.90
12634;DHT22;6382;48.614;8.880;2022-12-07T10:39:18;3.60;99.90
12634;DHT22;6382;48.614;8.880;2022-12-07T10:42:01;3.70;99.90
12634;DHT22;6382;48.614;8.880;2022-12-07T10:44:30;3.70;99.90
12634;DHT22;6382;48.614;8.880;2022-12-07T10:47:15;6.30;99.90
12634;DHT22;6382;48.614;8.880;2022-12-07T10:55:21;3.80;99.90
12634;DHT22;6382;48.614;8.880;2022-12-07T11:00:40;3.90;99.90
12634;DHT22;6382;48.614;8.880;2022-12-07T11:03:23;5.20;99.90
12634;DHT22;6382;48.614;8.880;2022-12-07T11:13:45;3.90;99.90
12634;DHT22;6382;48.614;8.880;2022-12-07T11:21:24;3.90;99.90
12634;DHT22;6382;48.614;8.880;2022-12-07T11:34:10;4.10;99.90
12634;DHT22;6382;48.614;8.880;2022-12-07T11:36:50;4.20;99.90
12634;DHT22;6382;48.614;8.880;2022-12-07T11:41:45;4.10;99.90
12634;DHT22;6382;48.614;8.880;2022-12-07T11:44:24;5.30;99.90
12634;DHT22;6382;48.614;8.880;2022-12-07T11:47:02;4.20;99.90
12634;DHT22;6382;48.614;8.880;2022-12-07T11:54:53;4.40;99.90
12634;DHT22;6382;48.614;8.880;2022-12-07T11:57:24;4.50;99.90
12634;DHT22;6382;48.614;8.880;2022-12-07T11:59:54;4.50;99.90
12634;DHT22;6382;48.614;8.880;2022-12-07T12:02:35;4.40;99.90
12634;DHT22;6382;48.614;8.880;2022-12-07T12:07:33;4.50;99.90
12634;DHT22;6382;48.614;8.880;2022-12-07T12:10:22;4.50;99.90
12634;DHT22;6382;48.614;8.880;2022-12-07T12:13:06;4.50;99.90
12634;DHT22;6382;48.614;8.880;2022-12-07T12:18:45;4.50;99.90
12634;DHT22;6382;48.614;8.880;2022-12-07T12:21:14;4.50;99.90
12634;DHT22;6382;48.614;8.880;2022-12-07T12:23:55;4.50;99.90
12634;DHT22;6382;48.614;8.880;2022-12-07T12:26:23;4.50;99.90
12634;DHT22;6382;48.614;8.880;2022-12-07T12:34:31;4.50;99.90
12634;DHT22;6382;48.614;8.880;2022-12-07T12:46:48;4.60;99.90
12634;DHT22;6382;48.614;8.880;2022-12-07T12:51:53;4.60;99.90
12634;DHT22;6382;48.614;8.880;2022-12-07T12:54:21;4.60;99.90
12634;DHT22;6382;48.614;8.880;2022-12-07T13:01:47;4.40;99.90
12634;DHT22;6382;48.614;8.880;2022-12-07T13:04:36;4.40;99.90
12634;DHT22;6382;48.614;8.880;2022-12-07T13:07:04;4.30;99.90
12634;DHT22;6382;48.614;8.880;2022-12-07T13:09:31;5.80;99.90
12634;DHT22;6382;48.614;8.880;2022-12-07T13:12:11;5.90;99.90
12634;DHT22;6382;48.614;8.880;2022-12-07T13:17:11;4.20;99.90
12634;DHT22;6382;48.614;8.880;2022-12-07T13:24:55;3.20;99.90
12634;DHT22;6382;48.614;8.880;2022-12-07T13:27:22;6.70;99.90
12634;DHT22;6382;48.614;8.880;2022-12-07T13:29:49;4.00;99.90
12634;DHT22;6382;48.614;8.880;2022-12-07T13:32:28;6.40;99.90
12634;DHT22;6382;48.614;8.880;2022-12-07T13:34:56;3.90;99.90
12634;DHT22;6382;48.614;8.880;2022-12-07T13:37:30;4.00;99.90
12634;DHT22;6382;48.614;8.880;2022-12-07T13:40:16;3.90;99.90
12634;DHT22;6382;48.614;8.880;2022-12-07T13:42:43;6.30;99.90
12634;DHT22;6382;48.614;8.880;2022-12-07T13:45:21;3.90;99.90
12634;DHT22;6382;48.614;8.880;2022-12-07T13:48:10;3.80;99.90
12634;DHT22;6382;48.614;8.880;2022-12-07T13:50:40;3.90;99.90
12634;DHT22;6382;48.614;8.880;2022-12-07T13:53:11;3.90;99.90
12634;DHT22;6382;48.614;8.880;2022-12-07T13:55:37;5.80;99.90
12634;DHT22;6382;48.614;8.880;2022-12-07T13:58:14;3.80;99.90
12634;DHT22;6382;48.614;8.880;2022-12-07T14:00:41;3.80;99.90
12634;DHT22;6382;48.614;8.880;2022-12-07T14:05:39;3.80;99.90
12634;DHT22;6382;48.614;8.880;2022-12-07T14:10:40;3.80;99.90
12634;DHT22;6382;48.614;8.880;2022-12-07T14:15:53;3.80;99.90
12634;DHT22;6382;48.614;8.880;2022-12-07T14:21:03;3.80;99.90
12634;DHT22;6382;48.614;8.880;2022-12-07T14:23:30;6.00;99.90
12634;DHT22;6382;48.614;8.880;2022-12-07T14:28:47;3.70;99.90
12634;DHT22;6382;48.614;8.880;2022-12-07T14:31:14;3.70;99.90
12634;DHT22;6382;48.614;8.880;2022-12-07T14:33:51;5.80;99.90
12634;DHT22;6382;48.614;8.880;2022-12-07T14:36:18;5.90;99.90
12634;DHT22;6382;48.614;8.880;2022-12-07T14:38:45;5.30;99.90
12634;DHT22;6382;48.614;8.880;2022-12-07T14:41:23;3.70;99.90
12634;DHT22;6382;48.614;8.880;2022-12-07T14:44:12;3.60;99.90
12634;DHT22;6382;48.614;8.880;2022-12-07T14:46:58;3.60;99.90
12634;DHT22;6382;48.614;8.880;2022-12-07T14:49:45;3.60;99.90
12634;DHT22;6382;48.614;8.880;2022-12-07T14:52:23;3.60;99.90
12634;DHT22;6382;48.614;8.880;2022-12-07T14:55:16;3.60;99.90
12634;DHT22;6382;48.614;8.880;2022-12-07T14:57:44;3.50;99.90
12634;DHT22;6382;48.614;8.880;2022-12-07T15:00:15;4.80;99.90
12634;DHT22;6382;48.614;8.880;2022-12-07T15:02:41;3.50;99.90
12634;DHT22;6382;48.614;8.880;2022-12-07T15:05:08;3.50;99.90
12634;DHT22;6382;48.614;8.880;2022-12-07T15:07:41;3.20;99.90
12634;DHT22;6382;48.614;8.880;2022-12-07T15:10:18;3.40;99.90
12634;DHT22;6382;48.614;8.880;2022-12-07T15:12:49;3.40;99.90
12634;DHT22;6382;48.614;8.880;2022-12-07T15:15:16;3.40;99.90
12634;DHT22;6382;48.614;8.880;2022-12-07T15:17:43;3.40;99.90
12634;DHT22;6382;48.614;8.880;2022-12-07T15:20:13;3.30;99.90
12634;DHT22;6382;48.614;8.880;2022-12-07T15:22:43;3.20;99.90
12634;DHT22;6382;48.614;8.880;2022-12-07T15:25:12;5.20;99.90
12634;DHT22;6382;48.614;8.880;2022-12-07T15:27:39;3.30;99.90
12634;DHT22;6382;48.614;8.880;2022-12-07T15:30:05;3.20;99.90
12634;DHT22;6382;48.614;8.880;2022-12-07T15:32:32;3.10;99.90
12634;DHT22;6382;48.614;8.880;2022-12-07T15:34:59;3.10;99.90
12634;DHT22;6382;48.614;8.880;2022-12-07T15:37:26;3.00;99.90
12634;DHT22;6382;48.614;8.880;2022-12-07T15:39:53;4.10;99.90
12634;DHT22;6382;48.614;8.880;2022-12-07T15:42:20;2.80;99.90
12634;DHT22;6382;48.614;8.880;2022-12-07T15:44:46;3.60;99.90
12634;DHT22;6382;48.614;8.880;2022-12-07T15:50:19;2.60;99.90
12634;DHT22;6382;48.614;8.880;2022-12-07T15:52:46;4.60;99.90
12634;DHT22;6382;48.614;8.880;2022-12-07T15:55:12;2.50;99.90
12634;DHT22;6382;48.614;8.880;2022-12-07T15:57:39;4.40;99.90
12634;DHT22;6382;48.614;8.880;2022-12-07T16:00:06;2.40;99.90
12634;DHT22;6382;48.614;8.880;2022-12-07T16:02:36;2.30;99.90
12634;DHT22;6382;48.614;8.880;2022-12-07T16:05:05;4.80;99.90
12634;DHT22;6382;48.614;8.880;2022-12-07T16:07:32;2.30;99.90
12634;DHT22;6382;48.614;8.880;2022-12-07T16:09:59;2.30;99.90
12634;DHT22;6382;48.614;8.880;2022-12-07T16:12:25;2.30;99.90
12634;DHT22;6382;48.614;8.880;2022-12-07T16:14:52;2.20;99.90
12634;DHT22;6382;48.614;8.880;2022-12-07T16:17:19;2.20;99.90
12634;DHT22;6382;48.614;8.880;2022-12-07T16:19:45;2.20;99.90
12634;DHT22;6382;48.614;8.880;2022-12-07T16:22:12;2.60;99.90
12634;DHT22;6382;48.614;8.880;2022-12-07T16:24:39;3.80;99.90
12634;DHT22;6382;48.614;8.880;2022-12-07T16:27:05;2.20;99.90
12634;DHT22;6382;48.614;8.880;2022-12-07T16:29:32;2.20;99.90
12634;DHT22;6382;48.614;8.880;2022-12-07T16:31:58;2.20;99.90
12634;DHT22;6382;48.614;8.880;2022-12-07T16:34:25;2.20;99.90
12634;DHT22;6382;48.614;8.880;2022-12-07T16:36:52;4.30;99.90
12634;DHT22;6382;48.614;8.880;2022-12-07T16:39:34;2.20;99.90
12634;DHT22;6382;48.614;8.880;2022-12-07T16:42:00;2.10;99.90
12634;DHT22;6382;48.614;8.880;2022-12-07T16:44:27;2.10;99.90
12634;DHT22;6382;48.614;8.880;2022-12-07T16:46:54;2.10;99.90
12634;DHT22;6382;48.614;8.880;2022-12-07T16:49:21;2.20;99.90
12634;DHT22;6382;48.614;8.880;2022-12-07T16:51:50;4.70;99.90
12634;DHT22;6382;48.614;8.880;2022-12-07T16:54:37;2.20;99.90
12634;DHT22;6382;48.614;8.880;2022-12-07T16:57:04;2.20;99.90
12634;DHT22;6382;48.614;8.880;2022-12-07T16:59:30;2.30;99.90
12634;DHT22;6382;48.614;8.880;2022-12-07T17:02:00;2.30;99.90
12634;DHT22;6382;48.614;8.880;2022-12-07T17:04:27;2.30;99.90
12634;DHT22;6382;48.614;8.880;2022-12-07T17:06:54;2.30;99.90
12634;DHT22;6382;48.614;8.880;2022-12-07T17:09:21;2.30;99.90
12634;DHT22;6382;48.614;8.880;2022-12-07T17:11:47;2.30;99.90
12634;DHT22;6382;48.614;8.880;2022-12-07T17:14:14;2.30;99.90
12634;DHT22;6382;48.614;8.880;2022-12-07T17:16:59;2.30;99.90
12634;DHT22;6382;48.614;8.880;2022-12-07T17:19:26;2.20;99.90
12634;DHT22;6382;48.614;8.880;2022-12-07T17:21:53;4.30;99.90
12634;DHT22;6382;48.614;8.880;2022-12-07T17:24:19;2.20;99.90
12634;DHT22;6382;48.614;8.880;2022-12-07T17:26:46;2.20;99.90
12634;DHT22;6382;48.614;8.880;2022-12-07T17:29:14;2.10;99.90
12634;DHT22;6382;48.614;8.880;2022-12-07T17:31:41;2.20;99.90
12634;DHT22;6382;48.614;8.880;2022-12-07T17:34:15;3.70;99.90
12634;DHT22;6382;48.614;8.880;2022-12-07T17:36:42;2.20;99.90
12634;DHT22;6382;48.614;8.880;2022-12-07T17:39:09;2.10;99.90
12634;DHT22;6382;48.614;8.880;2022-12-07T17:41:36;3.20;99.90
12634;DHT22;6382;48.614;8.880;2022-12-07T17:44:22;2.20;99.90
12634;DHT22;6382;48.614;8.880;2022-12-07T17:46:50;2.10;99.90
12634;DHT22;6382;48.614;8.880;2022-12-07T17:49:20;2.20;99.90
12634;DHT22;6382;48.614;8.880;2022-12-07T17:51:47;2.20;99.90
12634;DHT22;6382;48.614;8.880;2022-12-07T17:54:32;2.10;99.90
12634;DHT22;6382;48.614;8.880;2022-12-07T17:56:59;2.00;99.90
12634;DHT22;6382;48.614;8.880;2022-12-07T17:59:26;2.10;99.90
12634;DHT22;6382;48.614;8.880;2022-12-07T18:01:52;2.10;99.90
12634;DHT22;6382;48.614;8.880;2022-12-07T18:04:19;2.10;99.90
12634;DHT22;6382;48.614;8.880;2022-12-07T18:06:46;1.90;99.90
12634;DHT22;6382;48.614;8.880;2022-12-07T18:09:17;1.90;99.90
12634;DHT22;6382;48.614;8.880;2022-12-07T18:11:44;1.90;99.90
12634;DHT22;6382;48.614;8.880;2022-12-07T18:14:11;1.80;99.90